Time;durP1;ratioP1;P1;durP2;ratioP2;P2;SDS_P1;SDS_P2;PMS_P1;PMS_P2;Temp;Humidity;BMP_temperature;BMP_pressure;BME280_temperature;BME280_humidity;BME280_pressure;Samples;Min_cycle;Max_cycle;Signal;HPM_P1;HPM_P2
2022/07/04 04:16:04;;;;;;;;;;;25.10;84.20;;;;;;5046208;23;19928;-83
2022/07/04 04:18:31;;;;;;;;;;;25.10;84.30;;;;;;5000187;28;20288;-82
2022/07/04 04:20:58;;;;;;;;;;;25.10;84.40;;;;;;4999786;28;19968;-81
2022/07/04 04:23:24;;;;;;;;;;;25.10;85.20;;;;;;5000630;28;19956;-81
2022/07/04 04:25:51;;;;;;;;;;;25.10;84.60;;;;;;5000068;28;20297;-82
2022/07/04 04:28:18;;;;;;;;;;;25.10;84.80;;;;;;5021928;23;20288;-79
2022/07/04 04:30:44;;;;;;;;;;;25.10;84.90;;;;;;4998236;28;19922;-79
2022/07/04 04:33:12;;;;;;;;;;;25.10;84.90;;;;;;4997321;28;20288;-81
2022/07/04 04:35:39;;;;;;;;;;;25.10;84.90;;;;;;4995638;28;20303;-81
2022/07/04 04:38:06;;;;;;;;;;;25.10;84.90;;;;;;4995700;28;19922;-81
2022/07/04 04:40:33;;;;;;;;;;;25.10;84.90;;;;;;4995710;28;19957;-82
2022/07/04 04:43:02;;;;;;;;;;;25.10;84.90;;;;;;4995837;28;19960;-82
2022/07/04 04:45:29;;;;;;;;;;;25.10;84.90;;;;;;4995805;28;19960;-81
2022/07/04 04:47:55;;;;;;;;;;;25.10;85.00;;;;;;4996014;28;19968;-84
2022/07/04 04:50:23;;;;;;;;;;;25.10;85.30;;;;;;4996514;28;20041;-83
2022/07/04 04:52:50;;;;;;;;;;;25.10;85.50;;;;;;4996210;28;19972;-81
2022/07/04 04:55:17;;;;;;;;;;;25.10;85.80;;;;;;4996256;28;19953;-81
2022/07/04 04:57:44;;;;;;;;;;;25.20;86.10;;;;;;4995584;28;19926;-82
2022/07/04 05:00:11;;;;;;;;;;;25.10;86.40;;;;;;4995082;28;20381;-82
2022/07/04 05:02:38;;;;;;;;;;;25.10;86.60;;;;;;4995601;28;19972;-81
2022/07/04 05:05:06;;;;;;;;;;;25.20;86.90;;;;;;4995615;28;19922;-82
2022/07/04 05:07:34;;;;;;;;;;;25.20;87.10;;;;;;4995142;28;19968;-81
2022/07/04 05:10:01;;;;;;;;;;;25.20;87.20;;;;;;4995819;28;19922;-79
2022/07/04 05:12:28;;;;;;;;;;;25.20;87.50;;;;;;4995982;28;20321;-80
2022/07/04 05:14:55;;;;;;;;;;;25.20;87.70;;;;;;4996026;28;20056;-79
2022/07/04 05:17:22;;;;;;;;;;;25.20;87.90;;;;;;4995325;28;19971;-82
2022/07/04 05:19:49;;;;;;;;;;;25.20;87.90;;;;;;4995290;28;19971;-82
2022/07/04 05:22:15;;;;;;;;;;;25.20;88.00;;;;;;4995307;28;19922;-82
2022/07/04 05:24:44;;;;;;;;;;;25.20;88.10;;;;;;4995098;28;19964;-82
2022/07/04 05:27:11;;;;;;;;;;;25.20;88.20;;;;;;4995912;28;19922;-82
2022/07/04 05:29:38;;;;;;;;;;;25.10;88.30;;;;;;4995901;28;19953;-82
2022/07/04 05:32:04;;;;;;;;;;;25.20;88.40;;;;;;4995457;28;20301;-82
2022/07/04 05:34:31;;;;;;;;;;;25.10;88.40;;;;;;4995957;28;19922;-82
2022/07/04 05:36:58;;;;;;;;;;;25.10;88.50;;;;;;4996004;28;19967;-82
2022/07/04 05:39:25;;;;;;;;;;;25.10;88.60;;;;;;4996051;28;19964;-82
2022/07/04 05:41:53;;;;;;;;;;;25.10;88.60;;;;;;4995597;28;19961;-82
2022/07/04 05:44:19;;;;;;;;;;;25.10;88.70;;;;;;4996939;28;19921;-82
2022/07/04 05:46:46;;;;;;;;;;;25.10;88.70;;;;;;4995398;28;19961;-82
2022/07/04 05:49:13;;;;;;;;;;;25.10;88.80;;;;;;4996384;28;19958;-81
2022/07/04 05:51:39;;;;;;;;;;;25.10;88.80;;;;;;4995582;28;19922;-81
2022/07/04 05:54:06;;;;;;;;;;;25.10;88.80;;;;;;4995304;28;19922;-82
2022/07/04 05:56:33;;;;;;;;;;;25.10;88.90;;;;;;4995016;28;19922;-82
2022/07/04 05:59:01;;;;;;;;;;;25.10;88.90;;;;;;4995156;28;19921;-82
2022/07/04 06:01:28;;;;;;;;;;;25.10;88.90;;;;;;4995313;28;19972;-82
2022/07/04 06:03:54;;;;;;;;;;;25.10;89.00;;;;;;4994934;28;20389;-82
2022/07/04 06:06:21;;;;;;;;;;;25.10;89.00;;;;;;4995337;28;19976;-82
2022/07/04 06:08:48;;;;;;;;;;;25.10;89.00;;;;;;4995795;28;19954;-82
2022/07/04 06:11:17;;;;;;;;;;;25.10;89.10;;;;;;4995433;28;19973;-82
2022/07/04 06:13:44;;;;;;;;;;;25.10;89.10;;;;;;4995586;28;20016;-82
2022/07/04 06:16:12;;;;;;;;;;;25.10;89.20;;;;;;4996424;28;19950;-82
2022/07/04 06:18:39;;;;;;;;;;;25.10;89.20;;;;;;4996079;28;19969;-82
2022/07/04 06:21:05;;;;;;;;;;;25.10;89.20;;;;;;4995610;28;19972;-82
2022/07/04 06:23:32;;;;;;;;;;;25.10;89.20;;;;;;4995330;28;19978;-82
2022/07/04 06:25:59;;;;;;;;;;;25.10;89.30;;;;;;4995300;28;19964;-82
2022/07/04 06:28:26;;;;;;;;;;;25.10;89.30;;;;;;4994820;28;19922;-82
2022/07/04 06:30:52;;;;;;;;;;;25.10;89.30;;;;;;4995141;28;19957;-82
2022/07/04 06:33:20;;;;;;;;;;;25.10;89.30;;;;;;4994963;28;19944;-82
2022/07/04 06:35:48;;;;;;;;;;;25.10;89.30;;;;;;4995188;28;19964;-82
2022/07/04 06:38:16;;;;;;;;;;;25.10;89.30;;;;;;4995591;28;19928;-82
2022/07/04 06:40:43;;;;;;;;;;;25.10;89.40;;;;;;4995735;28;20046;-82
2022/07/04 06:43:10;;;;;;;;;;;25.10;89.50;;;;;;4995185;28;19921;-82
2022/07/04 06:45:37;;;;;;;;;;;25.10;89.50;;;;;;4997115;28;19961;-82
2022/07/04 06:48:04;;;;;;;;;;;25.10;89.50;;;;;;4998255;28;19922;-82
2022/07/04 06:50:33;;;;;;;;;;;25.10;89.50;;;;;;4998329;28;19956;-82
2022/07/04 06:53:00;;;;;;;;;;;25.10;89.60;;;;;;4998235;28;20399;-82
2022/07/04 06:55:27;;;;;;;;;;;25.10;89.60;;;;;;4997959;28;19922;-82
2022/07/04 06:57:53;;;;;;;;;;;25.10;89.60;;;;;;4998106;28;19921;-82
2022/07/04 07:00:20;;;;;;;;;;;25.10;89.60;;;;;;4998026;28;19987;-82
2022/07/04 07:02:47;;;;;;;;;;;25.10;89.70;;;;;;4997453;28;19946;-82
2022/07/04 07:05:13;;;;;;;;;;;25.10;89.70;;;;;;4997664;28;19949;-82
2022/07/04 07:07:41;;;;;;;;;;;25.10;89.80;;;;;;4997341;28;19945;-82
2022/07/04 07:10:09;;;;;;;;;;;25.10;89.80;;;;;;4997443;28;19957;-86
2022/07/04 07:12:36;;;;;;;;;;;25.10;89.90;;;;;;5000030;28;19926;-85
2022/07/04 07:15:03;;;;;;;;;;;25.10;89.90;;;;;;5004296;28;19925;-86
2022/07/04 07:17:31;;;;;;;;;;;25.10;90.00;;;;;;5003925;28;19922;-85
2022/07/04 07:19:58;;;;;;;;;;;25.10;90.00;;;;;;5004741;28;20012;-86
2022/07/04 07:22:25;;;;;;;;;;;25.10;90.10;;;;;;5005064;28;20246;-86
2022/07/04 07:24:53;;;;;;;;;;;25.10;90.20;;;;;;5004228;28;19922;-86
2022/07/04 07:27:20;;;;;;;;;;;25.10;90.20;;;;;;5004215;28;19921;-86
2022/07/04 07:29:47;;;;;;;;;;;25.10;90.20;;;;;;5004617;28;19945;-86
2022/07/04 07:32:15;;;;;;;;;;;25.10;90.20;;;;;;5003976;28;19928;-86
2022/07/04 07:34:42;;;;;;;;;;;25.10;90.20;;;;;;5004795;28;20273;-86
2022/07/04 07:37:11;;;;;;;;;;;25.10;90.20;;;;;;5004142;28;19925;-85
2022/07/04 07:39:40;;;;;;;;;;;25.20;90.30;;;;;;5003755;28;19929;-85
2022/07/04 07:42:12;;;;;;;;;;;25.20;90.30;;;;;;5003903;28;20372;-85
2022/07/04 07:44:39;;;;;;;;;;;25.20;90.30;;;;;;5003793;28;19922;-85
2022/07/04 07:47:07;;;;;;;;;;;25.20;90.30;;;;;;5002946;28;19929;-85
2022/07/04 07:49:34;;;;;;;;;;;25.20;90.40;;;;;;5003237;28;19922;-85
2022/07/04 07:52:01;;;;;;;;;;;25.20;90.50;;;;;;5003149;28;19921;-85
2022/07/04 07:54:28;;;;;;;;;;;25.20;90.50;;;;;;5003497;28;20389;-85
2022/07/04 07:56:55;;;;;;;;;;;25.20;90.50;;;;;;5002050;28;19922;-85
2022/07/04 07:59:23;;;;;;;;;;;25.20;90.60;;;;;;5003276;28;19922;-85
2022/07/04 08:01:51;;;;;;;;;;;25.20;90.60;;;;;;5003850;28;19924;-85
2022/07/04 08:04:35;;;;;;;;;;;25.20;90.60;;;;;;5003380;28;19921;-85
2022/07/04 08:07:02;;;;;;;;;;;25.20;90.70;;;;;;5002593;28;19976;-85
2022/07/04 08:09:29;;;;;;;;;;;25.20;90.70;;;;;;5004647;28;19921;-85
2022/07/04 08:11:57;;;;;;;;;;;25.20;90.70;;;;;;5005417;28;19922;-83
2022/07/04 08:14:26;;;;;;;;;;;25.20;90.80;;;;;;5002618;28;19922;-81
2022/07/04 08:16:53;;;;;;;;;;;25.30;90.80;;;;;;5002584;28;19925;-81
2022/07/04 08:19:20;;;;;;;;;;;25.30;90.80;;;;;;5002337;28;19922;-81
2022/07/04 08:21:47;;;;;;;;;;;25.30;90.90;;;;;;5002456;28;19922;-81
2022/07/04 08:24:14;;;;;;;;;;;25.20;90.90;;;;;;5002591;28;19968;-81
2022/07/04 08:26:42;;;;;;;;;;;25.30;90.90;;;;;;5002193;28;19921;-81
2022/07/04 08:29:09;;;;;;;;;;;25.30;90.90;;;;;;5002582;28;20290;-81
2022/07/04 08:31:37;;;;;;;;;;;25.30;91.00;;;;;;5002727;28;19945;-82
2022/07/04 08:34:04;;;;;;;;;;;25.30;91.00;;;;;;5002611;28;20280;-83
2022/07/04 08:36:30;;;;;;;;;;;25.30;91.00;;;;;;4997211;28;19922;-81
2022/07/04 08:38:57;;;;;;;;;;;25.30;91.00;;;;;;4996731;28;20452;-82
2022/07/04 08:41:24;;;;;;;;;;;25.30;91.10;;;;;;4996935;28;19929;-79
2022/07/04 08:43:52;;;;;;;;;;;25.30;91.10;;;;;;4996857;28;19960;-79
2022/07/04 08:46:20;;;;;;;;;;;25.30;91.10;;;;;;4996986;28;19971;-79
2022/07/04 08:48:51;;;;;;;;;;;25.30;91.10;;;;;;4997030;28;19926;-79
2022/07/04 08:51:20;;;;;;;;;;;25.30;91.10;;;;;;4996755;28;19922;-79
2022/07/04 08:53:50;;;;;;;;;;;25.30;91.10;;;;;;4996566;28;20373;-79
2022/07/04 08:59:02;;;;;;;;;;;25.30;91.10;;;;;;4997093;28;20400;-79
2022/07/04 09:01:29;;;;;;;;;;;25.30;91.10;;;;;;4996597;28;19956;-79
2022/07/04 09:03:58;;;;;;;;;;;25.30;91.10;;;;;;4997693;28;19925;-80
2022/07/04 09:06:26;;;;;;;;;;;25.30;91.10;;;;;;4997139;28;19975;-79
2022/07/04 09:08:53;;;;;;;;;;;25.30;91.10;;;;;;4996175;28;19929;-79
2022/07/04 09:11:20;;;;;;;;;;;25.30;91.00;;;;;;4996131;28;19944;-79
2022/07/04 09:13:48;;;;;;;;;;;25.30;91.00;;;;;;4996487;28;19972;-79
2022/07/04 09:16:15;;;;;;;;;;;25.30;91.00;;;;;;4996219;28;19921;-79
2022/07/04 09:18:41;;;;;;;;;;;25.30;90.90;;;;;;4996473;28;20344;-79
2022/07/04 09:21:10;;;;;;;;;;;25.30;90.90;;;;;;4996559;28;19921;-79
2022/07/04 09:23:39;;;;;;;;;;;25.30;90.90;;;;;;4996473;28;19968;-79
2022/07/04 09:26:07;;;;;;;;;;;25.30;90.90;;;;;;4996064;28;20429;-79
2022/07/04 09:28:34;;;;;;;;;;;25.30;90.90;;;;;;4996649;28;19965;-80
2022/07/04 09:31:01;;;;;;;;;;;25.30;90.90;;;;;;4996794;28;20377;-89
2022/07/04 09:33:42;;;;;;;;;;;25.30;90.80;;;;;;4996544;28;19959;-84
2022/07/04 09:36:13;;;;;;;;;;;25.30;90.80;;;;;;4996276;28;19976;-85
2022/07/04 09:38:39;;;;;;;;;;;25.30;90.80;;;;;;4996274;28;19980;-84
2022/07/04 09:43:59;;;;;;;;;;;25.30;90.80;;;;;;4996686;28;19939;-84
2022/07/04 09:46:26;;;;;;;;;;;25.30;90.70;;;;;;4995852;28;20027;-84
2022/07/04 09:48:53;;;;;;;;;;;25.30;90.70;;;;;;4995668;28;19921;-84
2022/07/04 09:51:36;;;;;;;;;;;25.30;90.70;;;;;;4995555;28;19964;-85
2022/07/04 09:54:12;;;;;;;;;;;25.30;90.70;;;;;;4995924;28;19984;-84
2022/07/04 09:56:39;;;;;;;;;;;25.30;90.70;;;;;;4995948;28;19922;-84
2022/07/04 09:59:06;;;;;;;;;;;25.30;90.70;;;;;;4997142;28;20274;-85
2022/07/04 10:01:33;;;;;;;;;;;25.30;90.70;;;;;;4996477;28;19921;-85
2022/07/04 10:04:00;;;;;;;;;;;25.30;90.70;;;;;;4995792;28;19922;-85
2022/07/04 10:06:31;;;;;;;;;;;25.30;90.80;;;;;;4996127;28;19932;-85
2022/07/04 10:09:06;;;;;;;;;;;25.40;90.90;;;;;;4995647;28;19992;-83
2022/07/04 10:11:33;;;;;;;;;;;25.40;90.90;;;;;;4996319;28;19968;-81
2022/07/04 10:14:00;;;;;;;;;;;25.40;91.00;;;;;;4996804;28;19976;-81
2022/07/04 10:16:27;;;;;;;;;;;25.40;91.00;;;;;;4995849;28;19926;-81
2022/07/04 10:18:55;;;;;;;;;;;25.40;91.10;;;;;;4995707;28;20416;-81
2022/07/04 10:21:22;;;;;;;;;;;25.40;91.20;;;;;;4999488;28;19921;-81
2022/07/04 10:23:51;;;;;;;;;;;25.40;91.20;;;;;;5000813;28;19922;-81
2022/07/04 10:26:19;;;;;;;;;;;25.40;91.30;;;;;;5000056;28;19929;-81
2022/07/04 10:28:47;;;;;;;;;;;25.50;91.70;;;;;;4999487;28;19922;-81
2022/07/04 10:31:14;;;;;;;;;;;25.50;91.40;;;;;;4999641;28;19946;-82
2022/07/04 10:33:41;;;;;;;;;;;25.50;91.40;;;;;;5002429;28;19922;-81
2022/07/04 10:36:14;;;;;;;;;;;25.50;91.50;;;;;;5003220;28;19922;-82
2022/07/04 10:38:47;;;;;;;;;;;25.50;91.50;;;;;;5003974;28;19922;-85
2022/07/04 10:41:18;;;;;;;;;;;25.50;91.50;;;;;;5002669;28;19946;-85
2022/07/04 10:43:56;;;;;;;;;;;25.60;91.60;;;;;;5002766;28;19922;-88
2022/07/04 10:46:33;;;;;;;;;;;25.50;91.60;;;;;;5002320;28;19921;-88
2022/07/04 10:49:00;;;;;;;;;;;25.50;91.70;;;;;;5002160;28;19922;-88
2022/07/04 10:51:35;;;;;;;;;;;25.50;91.70;;;;;;5001412;28;19921;-86
2022/07/04 10:54:03;;;;;;;;;;;25.60;91.80;;;;;;5002067;28;19945;-86
2022/07/04 10:56:37;;;;;;;;;;;25.50;91.70;;;;;;5002036;28;19976;-86
2022/07/04 10:59:08;;;;;;;;;;;25.60;91.80;;;;;;5001548;28;19921;-85
2022/07/04 11:01:34;;;;;;;;;;;25.60;91.80;;;;;;5000453;28;19945;-85
2022/07/04 11:04:02;;;;;;;;;;;25.60;91.80;;;;;;4999670;28;19973;-85
2022/07/04 11:06:47;;;;;;;;;;;25.60;91.90;;;;;;4998254;28;19921;-85
2022/07/04 11:09:15;;;;;;;;;;;25.60;92.00;;;;;;4998734;28;19921;-83
2022/07/04 11:11:50;;;;;;;;;;;25.60;92.00;;;;;;4998738;28;19957;-84
2022/07/04 11:14:30;;;;;;;;;;;25.60;92.10;;;;;;5000347;28;19932;-83
2022/07/04 11:16:57;;;;;;;;;;;25.60;92.20;;;;;;5001586;28;19926;-82
2022/07/04 11:19:24;;;;;;;;;;;25.60;92.20;;;;;;5002708;28;19928;-82
2022/07/04 11:21:50;;;;;;;;;;;25.60;92.30;;;;;;5002544;28;19922;-80
2022/07/04 11:24:17;;;;;;;;;;;25.60;92.30;;;;;;5001926;28;19925;-86
2022/07/04 11:26:46;;;;;;;;;;;25.60;92.30;;;;;;5001842;28;20012;-84
2022/07/04 11:29:14;;;;;;;;;;;25.70;92.40;;;;;;5001795;28;20337;-82
2022/07/04 11:31:42;;;;;;;;;;;25.70;92.60;;;;;;5001176;28;19922;-85
2022/07/04 11:34:09;;;;;;;;;;;25.70;92.90;;;;;;5001123;28;19921;-87
2022/07/04 11:36:35;;;;;;;;;;;25.80;93.10;;;;;;4997311;28;19984;-86
2022/07/04 11:39:03;;;;;;;;;;;25.80;93.30;;;;;;4997166;28;19992;-86
2022/07/04 11:47:03;;;;;;;;;;;25.90;93.90;;;;;;4997093;28;20036;-82
2022/07/04 11:49:30;;;;;;;;;;;25.80;94.10;;;;;;4996904;28;19972;-82
2022/07/04 11:51:57;;;;;;;;;;;25.90;94.60;;;;;;4996922;28;19972;-82
2022/07/04 11:54:23;;;;;;;;;;;25.90;95.10;;;;;;4996767;28;19965;-82
2022/07/04 11:56:51;;;;;;;;;;;25.90;95.50;;;;;;4996442;28;20389;-82
2022/07/04 11:59:19;;;;;;;;;;;25.90;95.60;;;;;;4996903;28;19925;-81
2022/07/04 12:01:46;;;;;;;;;;;26.00;96.00;;;;;;4996581;28;20361;-81
2022/07/04 12:04:17;;;;;;;;;;;26.00;96.40;;;;;;4996565;28;19964;-81
2022/07/04 12:06:43;;;;;;;;;;;26.00;96.70;;;;;;4996515;28;19948;-82
2022/07/04 12:09:10;;;;;;;;;;;26.00;97.10;;;;;;4996497;28;19969;-82
2022/07/04 12:11:54;;;;;;;;;;;26.00;97.20;;;;;;4996399;28;20373;-88
2022/07/04 12:14:22;;;;;;;;;;;26.00;97.50;;;;;;4996028;28;20019;-87
2022/07/04 12:16:49;;;;;;;;;;;26.00;97.70;;;;;;4995638;28;19921;-85
2022/07/04 12:19:15;;;;;;;;;;;26.00;98.00;;;;;;4996438;28;19972;-84
2022/07/04 12:21:43;;;;;;;;;;;26.00;98.10;;;;;;4996168;28;19921;-84
2022/07/04 12:24:10;;;;;;;;;;;26.00;98.20;;;;;;4996164;28;19922;-82
2022/07/04 12:26:46;;;;;;;;;;;26.00;98.40;;;;;;4996670;28;19925;-83
2022/07/04 12:29:13;;;;;;;;;;;25.90;98.40;;;;;;4995152;28;19922;-83
2022/07/04 12:31:42;;;;;;;;;;;25.90;98.50;;;;;;4997433;28;19922;-82
2022/07/04 12:34:14;;;;;;;;;;;25.90;98.60;;;;;;4996901;28;19922;-83
2022/07/04 12:36:49;;;;;;;;;;;25.90;98.70;;;;;;4996691;28;19921;-83
2022/07/04 12:39:27;;;;;;;;;;;25.90;98.70;;;;;;4996774;28;19922;-82
2022/07/04 12:42:04;;;;;;;;;;;25.90;98.80;;;;;;4996898;28;19988;-82
2022/07/04 12:44:31;;;;;;;;;;;25.90;98.90;;;;;;4995492;28;19926;-83
2022/07/04 12:46:59;;;;;;;;;;;25.90;98.90;;;;;;4994917;28;20309;-84
2022/07/04 12:49:26;;;;;;;;;;;25.90;99.00;;;;;;4995504;28;19950;-84
2022/07/04 12:51:53;;;;;;;;;;;25.90;99.10;;;;;;4995411;28;19972;-81
2022/07/04 12:54:19;;;;;;;;;;;25.80;99.10;;;;;;4996162;28;19921;-82
2022/07/04 12:56:47;;;;;;;;;;;25.80;99.20;;;;;;5000585;28;20373;-82
2022/07/04 12:59:14;;;;;;;;;;;25.80;99.20;;;;;;5000591;28;19921;-83
2022/07/04 13:01:41;;;;;;;;;;;25.80;99.30;;;;;;5003214;28;19921;-83
2022/07/04 13:04:09;;;;;;;;;;;25.80;99.30;;;;;;5007378;28;19925;-83
2022/07/04 13:06:36;;;;;;;;;;;25.80;99.40;;;;;;5007184;28;19922;-83
2022/07/04 13:09:05;;;;;;;;;;;25.80;99.40;;;;;;5008204;28;19922;-84
2022/07/04 13:14:16;;;;;;;;;;;25.80;99.50;;;;;;5007605;28;20294;-83
2022/07/04 13:16:43;;;;;;;;;;;25.70;99.50;;;;;;5006934;28;19922;-83
2022/07/04 13:19:11;;;;;;;;;;;25.70;99.60;;;;;;5006851;28;19929;-83
2022/07/04 13:21:38;;;;;;;;;;;25.80;99.70;;;;;;5004884;28;19933;-83
2022/07/04 13:24:05;;;;;;;;;;;25.80;99.90;;;;;;5006868;28;19921;-85
2022/07/04 13:26:32;;;;;;;;;;;25.70;99.90;;;;;;5002623;28;19921;-85
2022/07/04 13:28:59;;;;;;;;;;;25.70;99.90;;;;;;4960832;28;1119537;-85
2022/07/04 13:31:25;;;;;;;;;;;25.80;99.90;;;;;;4997820;28;19921;-85
2022/07/04 13:33:53;;;;;;;;;;;25.80;99.90;;;;;;4997136;28;20362;-84
2022/07/04 13:36:22;;;;;;;;;;;25.80;99.90;;;;;;4998415;28;20369;-86
2022/07/04 13:38:49;;;;;;;;;;;25.80;99.90;;;;;;4995959;28;19922;-87
2022/07/04 13:41:16;;;;;;;;;;;25.70;99.90;;;;;;4997721;28;19928;-86
2022/07/04 13:43:43;;;;;;;;;;;25.70;99.90;;;;;;4998292;28;19921;-86
2022/07/04 13:46:09;;;;;;;;;;;25.70;99.90;;;;;;4998202;28;19922;-86
2022/07/04 13:48:36;;;;;;;;;;;25.70;99.90;;;;;;4998602;28;19921;-86
2022/07/04 13:51:03;;;;;;;;;;;25.70;99.90;;;;;;4998156;28;19948;-86
2022/07/04 13:53:33;;;;;;;;;;;25.70;99.90;;;;;;4997921;28;19926;-86
2022/07/04 13:55:59;;;;;;;;;;;25.70;99.90;;;;;;5000612;28;19921;-84
2022/07/04 13:58:26;;;;;;;;;;;25.70;99.90;;;;;;5004003;28;20377;-85
2022/07/04 14:00:53;;;;;;;;;;;25.70;99.90;;;;;;5004803;28;19921;-85
2022/07/04 14:03:19;;;;;;;;;;;25.70;99.90;;;;;;5004922;28;19972;-86
2022/07/04 14:05:46;;;;;;;;;;;25.70;99.90;;;;;;5004142;28;19922;-85
2022/07/04 14:08:13;;;;;;;;;;;25.70;99.90;;;;;;5004037;28;19922;-85
2022/07/04 14:10:41;;;;;;;;;;;25.60;99.90;;;;;;5003502;28;19921;-85
2022/07/04 14:13:08;;;;;;;;;;;25.60;99.90;;;;;;5007063;28;20021;-85
2022/07/04 14:15:35;;;;;;;;;;;25.60;99.90;;;;;;5005903;28;19921;-84
2022/07/04 14:18:03;;;;;;;;;;;25.60;99.90;;;;;;5006473;28;19921;-84
2022/07/04 14:20:29;;;;;;;;;;;25.60;99.90;;;;;;5004769;28;20399;-84
2022/07/04 14:22:56;;;;;;;;;;;25.70;99.90;;;;;;5004685;28;19921;-84
2022/07/04 14:25:23;;;;;;;;;;;25.60;99.90;;;;;;5005169;28;19929;-84
2022/07/04 14:27:51;;;;;;;;;;;25.60;99.90;;;;;;5003735;28;19922;-84
2022/07/04 14:30:18;;;;;;;;;;;25.60;99.90;;;;;;5003868;28;19921;-83
2022/07/04 14:32:44;;;;;;;;;;;25.60;99.90;;;;;;5004738;28;19921;-83
2022/07/04 14:35:13;;;;;;;;;;;25.60;99.90;;;;;;5006945;28;19944;-84
2022/07/04 14:37:39;;;;;;;;;;;25.60;99.90;;;;;;5005290;28;19968;-84
2022/07/04 14:40:07;;;;;;;;;;;25.60;99.90;;;;;;5005526;28;20349;-86
2022/07/04 14:42:33;;;;;;;;;;;25.60;99.90;;;;;;5006813;28;19946;-87
2022/07/04 14:45:01;;;;;;;;;;;25.60;99.90;;;;;;4999600;28;19968;-87
2022/07/04 14:47:31;;;;;;;;;;;25.60;99.90;;;;;;4999923;28;19925;-84
2022/07/04 14:49:58;;;;;;;;;;;25.60;99.90;;;;;;4998458;28;19929;-83
2022/07/04 14:52:25;;;;;;;;;;;25.60;99.90;;;;;;4999577;28;19922;-82
2022/07/04 14:54:51;;;;;;;;;;;25.60;99.90;;;;;;5000932;28;20276;-83
2022/07/04 14:57:18;;;;;;;;;;;25.60;99.90;;;;;;4999850;28;19925;-79
2022/07/04 14:59:45;;;;;;;;;;;25.60;99.90;;;;;;4999488;28;19929;-80
2022/07/04 15:02:13;;;;;;;;;;;25.60;99.90;;;;;;5000287;28;19964;-80
2022/07/04 15:04:40;;;;;;;;;;;25.60;99.90;;;;;;5000052;28;19965;-80
2022/07/04 15:07:06;;;;;;;;;;;25.60;99.90;;;;;;5000325;28;19944;-83
2022/07/04 15:09:33;;;;;;;;;;;25.60;99.90;;;;;;5001339;28;19961;-81
2022/07/04 15:12:00;;;;;;;;;;;25.60;99.90;;;;;;5000983;28;19921;-82
2022/07/04 15:14:26;;;;;;;;;;;25.50;99.90;;;;;;5001143;28;19929;-83
2022/07/04 15:16:53;;;;;;;;;;;25.60;99.90;;;;;;5000363;28;19964;-80
2022/07/04 15:19:21;;;;;;;;;;;25.50;99.90;;;;;;5001079;28;19972;-83
2022/07/04 15:24:32;;;;;;;;;;;25.60;99.90;;;;;;5000083;28;19924;-83
2022/07/04 15:26:58;;;;;;;;;;;25.50;99.90;;;;;;5000904;28;19926;-83
2022/07/04 15:29:26;;;;;;;;;;;25.50;99.90;;;;;;5001986;28;20325;-82
2022/07/04 15:31:53;;;;;;;;;;;25.50;99.90;;;;;;5002991;28;20041;-83
2022/07/04 15:34:21;;;;;;;;;;;25.60;99.90;;;;;;5000942;28;19922;-82
2022/07/04 15:36:47;;;;;;;;;;;25.60;99.90;;;;;;5000327;28;19922;-81
2022/07/04 15:39:15;;;;;;;;;;;25.60;99.90;;;;;;4999496;28;19945;-82
2022/07/04 15:41:42;;;;;;;;;;;25.60;99.90;;;;;;4999792;28;19965;-81
2022/07/04 15:44:09;;;;;;;;;;;25.60;99.90;;;;;;4998893;28;19949;-81
2022/07/04 15:47:07;;;;;;;;;;;25.60;99.90;;;;;;4998164;28;19922;-77
2022/07/04 15:49:25;;;;;;;;;;;25.60;99.90;;;;;;4996169;28;19944;-77
2022/07/04 15:51:51;;;;;;;;;;;25.60;99.90;;;;;;4996346;28;20393;-77
2022/07/04 15:54:18;;;;;;;;;;;25.60;99.90;;;;;;4996655;28;19961;-78
2022/07/04 15:56:45;;;;;;;;;;;25.60;99.90;;;;;;4997571;28;19960;-79
2022/07/04 15:59:11;;;;;;;;;;;25.60;99.90;;;;;;4999011;28;20012;-78
2022/07/04 16:01:38;;;;;;;;;;;25.60;99.90;;;;;;4998085;28;19925;-78
2022/07/04 16:04:05;;;;;;;;;;;25.60;99.90;;;;;;4997525;28;19925;-78
2022/07/04 16:06:33;;;;;;;;;;;25.60;99.90;;;;;;4997213;28;19968;-77
2022/07/04 16:08:59;;;;;;;;;;;25.60;99.90;;;;;;4997054;28;19961;-77
2022/07/04 16:11:26;;;;;;;;;;;25.60;99.90;;;;;;5001260;28;20369;-77
2022/07/04 16:13:53;;;;;;;;;;;25.50;99.90;;;;;;4997642;28;20354;-78
2022/07/04 16:16:20;;;;;;;;;;;25.60;99.90;;;;;;4998165;28;19973;-78
2022/07/04 16:18:47;;;;;;;;;;;25.60;99.90;;;;;;4997600;28;19922;-78
2022/07/04 16:21:14;;;;;;;;;;;25.50;99.90;;;;;;4997879;28;20332;-78
2022/07/04 16:23:42;;;;;;;;;;;25.60;99.90;;;;;;4997523;28;19922;-78
2022/07/04 16:26:09;;;;;;;;;;;25.50;99.90;;;;;;4997806;28;19925;-78
2022/07/04 16:28:35;;;;;;;;;;;25.60;99.90;;;;;;4997010;28;19953;-78
2022/07/04 16:31:02;;;;;;;;;;;25.60;99.90;;;;;;4997543;28;19974;-78
2022/07/04 16:33:29;;;;;;;;;;;25.60;99.90;;;;;;4997470;28;19980;-78
2022/07/04 16:35:56;;;;;;;;;;;25.60;99.90;;;;;;4997606;28;19922;-78
2022/07/04 16:38:22;;;;;;;;;;;25.60;99.90;;;;;;4996684;28;19957;-78
2022/07/04 16:40:50;;;;;;;;;;;25.60;99.90;;;;;;4997272;28;19925;-79
2022/07/04 16:43:17;;;;;;;;;;;25.60;99.90;;;;;;4997472;28;19965;-79
2022/07/04 16:45:44;;;;;;;;;;;25.60;99.90;;;;;;4997969;28;19922;-79
2022/07/04 16:48:10;;;;;;;;;;;25.60;99.90;;;;;;4996665;28;20274;-78
2022/07/04 16:50:39;;;;;;;;;;;25.60;99.90;;;;;;4996727;28;19921;-78
2022/07/04 16:53:06;;;;;;;;;;;25.60;99.90;;;;;;4996730;28;19922;-78
2022/07/04 16:55:33;;;;;;;;;;;25.60;99.90;;;;;;4996190;28;19922;-78
2022/07/04 16:58:03;;;;;;;;;;;25.60;99.90;;;;;;4997544;28;19921;-78
2022/07/04 17:00:29;;;;;;;;;;;25.60;99.90;;;;;;4998569;28;19933;-79
2022/07/04 17:02:56;;;;;;;;;;;25.60;99.90;;;;;;4997851;28;19961;-78
2022/07/04 17:05:23;;;;;;;;;;;25.60;99.90;;;;;;4999308;28;19928;-82
2022/07/04 17:07:50;;;;;;;;;;;25.60;99.90;;;;;;5000665;28;20277;-84
2022/07/04 17:10:16;;;;;;;;;;;25.60;99.90;;;;;;5001850;28;19922;-87
2022/07/04 17:12:43;;;;;;;;;;;25.60;99.90;;;;;;5001532;28;20374;-86
2022/07/04 17:15:12;;;;;;;;;;;25.60;99.90;;;;;;5001788;28;19922;-86
2022/07/04 17:17:39;;;;;;;;;;;25.50;99.90;;;;;;5001029;28;19929;-86
2022/07/04 17:20:07;;;;;;;;;;;25.50;99.90;;;;;;5001718;28;19921;-85
2022/07/04 17:22:34;;;;;;;;;;;25.60;99.90;;;;;;4999114;28;20012;-84
2022/07/04 17:25:00;;;;;;;;;;;25.60;99.90;;;;;;5000747;28;20004;-84
2022/07/04 17:27:27;;;;;;;;;;;25.60;99.90;;;;;;5003561;28;20440;-84
2022/07/04 17:29:54;;;;;;;;;;;25.60;99.90;;;;;;5005773;28;19922;-86
2022/07/04 17:32:22;;;;;;;;;;;25.60;99.90;;;;;;5005812;28;20388;-86
2022/07/04 17:34:49;;;;;;;;;;;25.60;99.90;;;;;;5005255;28;19968;-86
2022/07/04 17:37:17;;;;;;;;;;;25.50;99.90;;;;;;5005209;28;19922;-86
2022/07/04 17:39:44;;;;;;;;;;;25.50;99.90;;;;;;5004234;28;19961;-84
2022/07/04 17:42:11;;;;;;;;;;;25.50;99.90;;;;;;5002238;28;19945;-84
2022/07/04 17:44:38;;;;;;;;;;;25.50;99.90;;;;;;5006483;28;19921;-85
2022/07/04 17:47:05;;;;;;;;;;;25.50;99.90;;;;;;5003157;28;19922;-84
2022/07/04 17:49:34;;;;;;;;;;;25.50;99.90;;;;;;5006866;28;19929;-85
2022/07/04 17:52:00;;;;;;;;;;;25.50;99.90;;;;;;5007932;28;19930;-84
2022/07/04 17:54:27;;;;;;;;;;;25.50;99.90;;;;;;5004771;28;20274;-84
2022/07/04 17:56:54;;;;;;;;;;;25.50;99.90;;;;;;5007547;28;19984;-85
2022/07/04 17:59:23;;;;;;;;;;;25.50;99.90;;;;;;5007376;28;19929;-83
2022/07/04 18:01:50;;;;;;;;;;;25.50;99.90;;;;;;5005440;28;19989;-84
2022/07/04 18:04:16;;;;;;;;;;;25.50;99.90;;;;;;5003565;28;19922;-83
2022/07/04 18:06:44;;;;;;;;;;;25.50;99.90;;;;;;4999696;28;20341;-81
2022/07/04 18:09:11;;;;;;;;;;;25.50;99.90;;;;;;4999092;28;19953;-81
2022/07/04 18:11:38;;;;;;;;;;;25.50;99.90;;;;;;4998268;28;19922;-79
2022/07/04 18:14:05;;;;;;;;;;;25.50;99.90;;;;;;4999323;28;19930;-79
2022/07/04 18:16:32;;;;;;;;;;;25.50;99.90;;;;;;4997107;28;20012;-78
2022/07/04 18:18:59;;;;;;;;;;;25.50;99.90;;;;;;4996667;28;19984;-79
2022/07/04 18:21:26;;;;;;;;;;;25.60;99.90;;;;;;4996522;28;20436;-84
2022/07/04 18:23:54;;;;;;;;;;;25.60;99.90;;;;;;5000509;28;20270;-84
2022/07/04 18:26:21;;;;;;;;;;;25.60;99.90;;;;;;4998076;28;19922;-83
2022/07/04 18:28:48;;;;;;;;;;;25.60;99.90;;;;;;4998035;28;20325;-83
2022/07/04 18:31:15;;;;;;;;;;;25.60;99.90;;;;;;4998514;28;19945;-82
2022/07/04 18:33:42;;;;;;;;;;;25.60;99.90;;;;;;4999337;28;19922;-83
2022/07/04 18:36:09;;;;;;;;;;;25.60;99.90;;;;;;4999777;28;19976;-84
2022/07/04 18:38:36;;;;;;;;;;;25.60;99.90;;;;;;5000311;28;19922;-83
2022/07/04 18:43:48;;;;;;;;;;;25.60;99.90;;;;;;5001725;28;19928;-82
2022/07/04 18:46:15;;;;;;;;;;;25.60;99.90;;;;;;5000818;28;19961;-82
2022/07/04 18:48:42;;;;;;;;;;;25.60;99.90;;;;;;5004128;28;19922;-84
2022/07/04 18:51:09;;;;;;;;;;;25.60;99.90;;;;;;5009477;28;19928;-86
2022/07/04 18:53:37;;;;;;;;;;;25.60;99.90;;;;;;5007348;28;19922;-86